createdAt,value
2023-04-04T00:02:44.789Z,2.50
2023-04-04T00:05:33.500Z,2.50
2023-04-04T00:08:23.433Z,2.50
2023-04-04T00:11:11.880Z,2.40
2023-04-04T00:14:00.180Z,2.20
2023-04-04T00:16:50.764Z,2.10
2023-04-04T00:19:41.454Z,2.20
2023-04-04T00:22:28.963Z,2.30
2023-04-04T00:25:20.323Z,2.40
2023-04-04T00:28:09.890Z,2.40
2023-04-04T00:30:59.605Z,2.20
2023-04-04T00:33:47.503Z,2.30
2023-04-04T00:36:37.278Z,2.30
2023-04-04T00:39:26.611Z,2.30
2023-04-04T00:42:16.700Z,2.30
2023-04-04T00:45:04.824Z,2.20
2023-04-04T00:47:55.184Z,2.20
2023-04-04T00:50:42.783Z,2.20
2023-04-04T00:53:30.845Z,2.20
2023-04-04T00:56:18.410Z,2.20
2023-04-04T00:59:09.195Z,2.20
2023-04-04T01:01:56.828Z,2.10
2023-04-04T01:04:46.076Z,2.10
2023-04-04T01:07:36.723Z,1.90
2023-04-04T01:10:25.543Z,2.00
2023-04-04T01:13:13.603Z,1.90
2023-04-04T01:16:03.201Z,1.80
2023-04-04T01:18:51.139Z,1.90
2023-04-04T01:21:38.983Z,1.80
2023-04-04T01:24:27.876Z,1.80
2023-04-04T01:27:20.640Z,1.70
2023-04-04T01:30:16.385Z,1.70
2023-04-04T01:33:07.226Z,1.00
2023-04-04T01:36:02.653Z,1.60
2023-04-04T01:38:52.643Z,1.60
2023-04-04T01:41:40.942Z,1.60
2023-04-04T01:44:30.483Z,1.60
2023-04-04T01:47:17.994Z,1.60
2023-04-04T01:50:05.864Z,1.70
2023-04-04T01:52:53.477Z,1.70
2023-04-04T01:55:41.469Z,1.60
2023-04-04T01:58:30.036Z,1.60
2023-04-04T02:01:18.887Z,1.60
2023-04-04T02:04:07.487Z,1.60
2023-04-04T02:06:56.973Z,1.50
2023-04-04T02:09:45.179Z,1.50
2023-04-04T02:12:33.429Z,1.80
2023-04-04T02:15:21.183Z,1.60
2023-04-04T02:18:10.653Z,1.50
2023-04-04T02:20:59.038Z,1.40
2023-04-04T02:23:46.545Z,1.30
2023-04-04T02:26:35.264Z,1.20
2023-04-04T02:29:23.176Z,1.10
2023-04-04T02:32:11.906Z,1.20
2023-04-04T02:35:01.682Z,1.20
2023-04-04T02:37:49.361Z,1.20
2023-04-04T02:40:43.953Z,1.10
2023-04-04T02:43:32.092Z,1.20
2023-04-04T02:46:21.965Z,1.10
2023-04-04T02:49:16.942Z,1.10
2023-04-04T02:52:11.844Z,1.10
2023-04-04T02:55:03.799Z,1.10
2023-04-04T02:57:55.895Z,1.00
2023-04-04T03:00:52.960Z,1.00
2023-04-04T03:03:41.271Z,2.00
2023-04-04T03:06:28.787Z,1.10
2023-04-04T03:09:17.609Z,1.10
2023-04-04T03:12:05.950Z,0.90
2023-04-04T03:14:53.993Z,1.00
2023-04-04T03:17:41.477Z,1.30
2023-04-04T03:20:29.664Z,1.00
2023-04-04T03:23:17.719Z,0.90
2023-04-04T03:26:06.697Z,1.70
2023-04-04T03:28:54.602Z,1.00
2023-04-04T03:31:44.557Z,1.00
2023-04-04T03:34:33.105Z,1.00
2023-04-04T03:37:21.211Z,0.90
2023-04-04T03:40:09.759Z,0.90
2023-04-04T03:42:59.130Z,0.90
2023-04-04T03:45:48.352Z,0.80
2023-04-04T03:48:36.145Z,0.70
2023-04-04T03:51:29.010Z,0.70
2023-04-04T03:54:17.622Z,0.80
2023-04-04T03:57:05.267Z,0.80
2023-04-04T03:59:54.060Z,0.90
2023-04-04T04:02:43.731Z,0.70
2023-04-04T04:05:31.559Z,0.70
2023-04-04T04:08:23.147Z,0.60
2023-04-04T04:11:14.615Z,0.60
2023-04-04T04:14:02.427Z,0.50
2023-04-04T04:16:52.482Z,0.50
2023-04-04T04:19:42.446Z,0.50
2023-04-04T04:22:30.146Z,0.50
2023-04-04T04:25:18.104Z,0.40
2023-04-04T04:28:16.196Z,0.30
2023-04-04T04:31:07.974Z,0.30
2023-04-04T04:34:06.319Z,0.40
2023-04-04T04:36:54.590Z,0.30
2023-04-04T04:39:46.356Z,0.20
2023-04-04T04:42:46.704Z,0.10
2023-04-04T04:45:38.578Z,0.10
2023-04-04T04:48:29.161Z,0.10
2023-04-04T04:51:20.530Z,0.10
2023-04-04T04:54:12.027Z,-0.30
2023-04-04T04:57:02.950Z,-0.60
2023-04-04T04:59:50.912Z,-0.80
2023-04-04T05:02:38.870Z,-1.00
2023-04-04T05:05:26.940Z,-1.10
2023-04-04T05:08:23.483Z,-1.10
2023-04-04T05:11:37.442Z,-1.00
2023-04-04T05:14:27.878Z,-0.70
2023-04-04T05:17:18.069Z,-0.50
2023-04-04T05:20:06.084Z,-0.40
2023-04-04T05:22:53.965Z,-0.30
2023-04-04T05:25:53.877Z,-0.40
2023-04-04T05:28:43.225Z,-0.40
2023-04-04T05:31:31.497Z,-0.50
2023-04-04T05:34:23.993Z,-0.60
2023-04-04T05:37:12.308Z,-0.50
2023-04-04T05:39:59.854Z,-0.50
2023-04-04T05:42:56.401Z,-0.40
2023-04-04T05:45:47.032Z,-0.40
2023-04-04T05:48:34.541Z,-0.50
2023-04-04T05:51:23.180Z,0.00
2023-04-04T05:54:17.944Z,-0.50
2023-04-04T05:57:08.548Z,-0.20
2023-04-04T06:00:15.853Z,1.00
2023-04-04T06:03:03.694Z,-0.20
2023-04-04T06:05:53.989Z,-0.20
2023-04-04T06:08:52.861Z,-0.30
2023-04-04T06:11:41.069Z,-0.20
2023-04-04T06:14:31.812Z,-0.10
2023-04-04T06:17:22.487Z,-0.10
2023-04-04T06:20:10.563Z,0.00
2023-04-04T06:22:57.983Z,0.10
2023-04-04T06:25:46.176Z,0.80
2023-04-04T06:28:35.256Z,0.30
2023-04-04T06:31:23.712Z,0.40
2023-04-04T06:34:15.346Z,0.60
2023-04-04T06:37:21.995Z,0.70
2023-04-04T06:40:22.146Z,0.80
2023-04-04T06:43:15.965Z,0.80
2023-04-04T06:46:10.849Z,1.00
2023-04-04T06:49:02.760Z,1.30
2023-04-04T06:51:54.486Z,-1.20
2023-04-04T06:54:41.727Z,1.40
2023-04-04T06:57:29.133Z,1.30
2023-04-04T07:00:17.736Z,1.40
2023-04-04T07:03:08.803Z,1.40
2023-04-04T07:05:56.656Z,1.60
2023-04-04T07:08:45.336Z,1.60
2023-04-04T07:11:35.745Z,1.70
2023-04-04T07:14:25.876Z,1.90
2023-04-04T07:17:23.695Z,2.00
2023-04-04T07:20:13.669Z,2.10
2023-04-04T07:23:01.313Z,2.20
2023-04-04T07:25:51.355Z,2.30
2023-04-04T07:28:39.816Z,2.50
2023-04-04T07:31:28.521Z,2.60
2023-04-04T07:34:16.118Z,2.40
2023-04-04T07:37:04.406Z,2.70
2023-04-04T07:39:52.122Z,2.80
2023-04-04T07:42:44.623Z,2.80
2023-04-04T07:45:32.241Z,3.10
2023-04-04T07:48:21.650Z,3.20
2023-04-04T07:51:11.069Z,3.30
2023-04-04T07:53:58.407Z,3.50
2023-04-04T07:56:46.613Z,3.10
2023-04-04T07:59:35.782Z,3.70
2023-04-04T08:02:23.579Z,3.60
2023-04-04T08:05:12.244Z,3.90
2023-04-04T08:08:00.241Z,3.90
2023-04-04T08:10:49.374Z,3.90
2023-04-04T08:13:38.179Z,3.90
2023-04-04T08:16:27.952Z,4.00
2023-04-04T08:19:16.727Z,4.00
2023-04-04T08:22:04.162Z,4.10
2023-04-04T08:24:52.370Z,4.30
2023-04-04T08:27:41.280Z,4.30
2023-04-04T08:30:28.992Z,4.20
2023-04-04T08:33:18.554Z,4.20
2023-04-04T08:36:06.786Z,4.20
2023-04-04T08:38:54.282Z,4.20
2023-04-04T08:41:43.950Z,4.20
2023-04-04T08:44:32.236Z,4.30
2023-04-04T08:47:21.507Z,4.70
2023-04-04T08:50:10.886Z,4.40
2023-04-04T08:53:03.150Z,4.40
2023-04-04T08:55:51.084Z,4.60
2023-04-04T08:58:39.719Z,4.50
2023-04-04T09:01:29.927Z,4.50
2023-04-04T09:04:17.503Z,5.40
2023-04-04T09:07:06.894Z,4.70
2023-04-04T09:09:55.158Z,4.70
2023-04-04T09:12:43.968Z,4.90
2023-04-04T09:15:33.044Z,5.40
2023-04-04T09:18:21.286Z,4.80
2023-04-04T09:21:12.742Z,4.90
2023-04-04T09:24:02.517Z,4.90
2023-04-04T09:26:51.597Z,5.00
2023-04-04T09:29:39.994Z,5.00
2023-04-04T09:32:27.527Z,5.00
2023-04-04T09:35:16.228Z,5.20
2023-04-04T09:38:04.653Z,5.40
2023-04-04T09:40:54.052Z,5.50
2023-04-04T09:43:41.859Z,5.60
2023-04-04T09:46:30.103Z,6.80
2023-04-04T09:49:21.232Z,6.00
2023-04-04T09:52:18.976Z,5.70
2023-04-04T09:55:07.541Z,5.80
2023-04-04T09:57:57.849Z,6.10
2023-04-04T10:00:48.620Z,6.10
2023-04-04T10:03:38.162Z,6.10
2023-04-04T10:06:25.758Z,6.40
2023-04-04T10:09:13.636Z,6.70
2023-04-04T10:12:09.800Z,7.50
2023-04-04T10:15:01.955Z,6.80
2023-04-04T10:17:50.902Z,6.90
2023-04-04T10:20:39.344Z,7.90
2023-04-04T10:23:27.828Z,7.30
2023-04-04T10:26:16.178Z,7.40
2023-04-04T10:29:06.007Z,7.10
2023-04-04T10:31:59.569Z,7.00
2023-04-04T10:34:51.030Z,7.10
2023-04-04T10:37:41.063Z,7.30
2023-04-04T10:40:34.686Z,7.40
2023-04-04T10:43:26.701Z,7.20
2023-04-04T10:46:16.757Z,7.50
2023-04-04T10:49:05.785Z,7.30
2023-04-04T10:51:56.867Z,9.90
2023-04-04T10:54:45.306Z,7.20
2023-04-04T10:57:34.582Z,7.50
2023-04-04T11:00:24.485Z,7.60
2023-04-04T11:03:12.130Z,7.80
2023-04-04T11:06:02.045Z,8.10
2023-04-04T11:08:56.026Z,8.30
2023-04-04T11:11:58.932Z,8.30
2023-04-04T11:14:55.874Z,8.50
2023-04-04T11:18:17.324Z,8.10
2023-04-04T11:21:11.680Z,7.70
2023-04-04T11:24:15.486Z,8.00
2023-04-04T11:27:03.444Z,8.50
2023-04-04T11:29:52.500Z,8.50
2023-04-04T11:32:50.145Z,8.20
2023-04-04T11:35:41.223Z,9.30
2023-04-04T11:38:30.826Z,8.50
2023-04-04T11:41:19.560Z,10.50
2023-04-04T11:44:10.099Z,8.40
2023-04-04T11:46:58.335Z,8.20
2023-04-04T11:49:47.351Z,8.30
2023-04-04T11:52:36.078Z,10.20
2023-04-04T11:55:24.978Z,9.40
2023-04-04T11:58:13.861Z,12.20
2023-04-04T12:01:01.446Z,9.50
2023-04-04T12:03:50.151Z,11.00
2023-04-04T12:06:39.016Z,9.90
2023-04-04T12:09:27.462Z,9.80
2023-04-04T12:12:17.380Z,10.10
2023-04-04T12:15:16.632Z,10.10
2023-04-04T12:18:07.775Z,10.20
2023-04-04T12:20:55.722Z,9.50
2023-04-04T12:23:44.056Z,9.10
2023-04-04T12:26:32.920Z,11.20
2023-04-04T12:29:23.313Z,9.40
2023-04-04T12:32:10.836Z,9.50
2023-04-04T12:35:01.884Z,9.00
2023-04-04T12:37:58.372Z,9.20
2023-04-04T12:40:46.117Z,9.50
2023-04-04T12:43:35.016Z,9.80
2023-04-04T12:46:29.119Z,10.00
2023-04-04T12:49:16.929Z,9.70
2023-04-04T12:52:06.994Z,10.10
2023-04-04T12:57:46.358Z,10.30
2023-04-04T13:00:37.104Z,10.70
2023-04-04T13:03:26.232Z,8.30
2023-04-04T13:06:14.513Z,10.00
2023-04-04T13:09:04.332Z,9.90
2023-04-04T13:11:59.227Z,10.10
2023-04-04T13:15:08.571Z,10.20
2023-04-04T13:17:56.566Z,11.10
2023-04-04T13:20:46.234Z,10.50
2023-04-04T13:23:33.719Z,10.80
2023-04-04T13:26:22.675Z,11.60
2023-04-04T13:29:10.755Z,11.30
2023-04-04T13:31:58.724Z,11.50
2023-04-04T13:34:46.308Z,11.10
2023-04-04T13:37:36.747Z,10.70
2023-04-04T13:40:26.713Z,10.90
2023-04-04T13:43:15.277Z,10.50
2023-04-04T13:46:03.266Z,11.30
2023-04-04T13:48:51.280Z,11.60
2023-04-04T13:51:39.090Z,11.60
2023-04-04T13:54:28.985Z,11.90
2023-04-04T13:57:16.888Z,11.90
2023-04-04T14:00:05.695Z,10.20
2023-04-04T14:02:57.198Z,12.30
2023-04-04T14:05:44.804Z,12.20
2023-04-04T14:08:33.845Z,12.00
2023-04-04T14:11:25.687Z,12.10
2023-04-04T14:14:13.824Z,12.40
2023-04-04T14:17:01.459Z,12.50
2023-04-04T14:19:48.948Z,11.90
2023-04-04T14:22:36.641Z,12.10
2023-04-04T14:25:24.478Z,13.50
2023-04-04T14:28:14.050Z,12.10
2023-04-04T14:31:02.495Z,11.90
2023-04-04T14:33:50.030Z,11.80
2023-04-04T14:36:37.605Z,12.30
2023-04-04T14:39:26.786Z,11.90
2023-04-04T14:42:14.424Z,12.10
2023-04-04T14:45:07.566Z,10.70
2023-04-04T14:47:55.042Z,9.10
2023-04-04T14:50:43.116Z,11.30
2023-04-04T14:53:30.943Z,11.50
2023-04-04T14:56:19.256Z,11.50
2023-04-04T14:59:08.380Z,11.30
2023-04-04T15:01:58.321Z,10.80
2023-04-04T15:04:46.912Z,10.40
2023-04-04T15:07:34.792Z,11.70
2023-04-04T15:10:23.278Z,12.60
2023-04-04T15:13:10.799Z,10.10
2023-04-04T15:16:00.185Z,10.30
2023-04-04T15:18:50.203Z,10.60
2023-04-04T15:21:38.062Z,10.70
2023-04-04T15:24:25.772Z,10.80
2023-04-04T15:27:13.793Z,10.70
2023-04-04T15:30:01.406Z,10.80
2023-04-04T15:32:49.508Z,10.60
2023-04-04T15:35:38.718Z,10.90
2023-04-04T15:38:26.650Z,11.30
2023-04-04T15:41:14.676Z,11.40
2023-04-04T15:44:06.292Z,11.50
2023-04-04T15:46:54.299Z,11.30
2023-04-04T15:49:41.430Z,11.20
2023-04-04T15:52:30.277Z,13.80
2023-04-04T15:55:20.020Z,11.10
2023-04-04T15:58:09.764Z,11.10
2023-04-04T16:00:57.198Z,11.20
2023-04-04T16:03:45.714Z,10.80
2023-04-04T16:06:33.172Z,11.10
2023-04-04T16:09:22.568Z,11.40
2023-04-04T16:12:10.113Z,11.30
2023-04-04T16:14:58.112Z,11.30
2023-04-04T16:17:45.573Z,11.10
2023-04-04T16:20:33.727Z,11.00
2023-04-04T16:23:22.096Z,11.00
2023-04-04T16:26:13.783Z,11.10
2023-04-04T16:29:03.289Z,10.80
2023-04-04T16:31:51.497Z,10.90
2023-04-04T16:34:39.390Z,10.90
2023-04-04T16:37:26.995Z,11.20
2023-04-04T16:40:15.564Z,10.90
2023-04-04T16:43:04.882Z,10.60
2023-04-04T16:45:52.798Z,10.30
2023-04-04T16:48:40.694Z,10.20
2023-04-04T16:51:29.285Z,10.20
2023-04-04T16:54:17.357Z,10.10
2023-04-04T16:57:07.598Z,10.70
2023-04-04T16:59:56.620Z,10.00
2023-04-04T17:02:46.329Z,12.50
2023-04-04T17:05:34.128Z,10.10
2023-04-04T17:08:22.278Z,10.20
2023-04-04T17:11:10.765Z,10.20
2023-04-04T17:13:58.252Z,10.20
2023-04-04T17:16:47.284Z,9.60
2023-04-04T17:19:37.255Z,10.10
2023-04-04T17:22:24.886Z,10.10
2023-04-04T17:25:12.088Z,10.20
2023-04-04T17:28:00.019Z,10.10
2023-04-04T17:30:48.129Z,10.20
2023-04-04T17:33:37.715Z,10.10
2023-04-04T17:36:24.862Z,9.80
2023-04-04T17:39:13.243Z,9.60
2023-04-04T17:42:01.085Z,9.40
2023-04-04T17:44:49.048Z,9.40
2023-04-04T17:47:36.321Z,9.40
2023-04-04T17:50:25.694Z,9.30
2023-04-04T17:53:13.078Z,9.30
2023-04-04T17:56:01.186Z,9.20
2023-04-04T17:58:48.552Z,9.10
2023-04-04T18:01:38.915Z,9.00
2023-04-04T18:04:27.430Z,9.40
2023-04-04T18:07:17.029Z,8.70
2023-04-04T18:10:05.572Z,8.60
2023-04-04T18:12:53.190Z,8.40
2023-04-04T18:15:41.308Z,8.10
2023-04-04T18:18:29.380Z,7.90
2023-04-04T18:21:17.408Z,8.00
2023-04-04T18:24:08.077Z,7.50
2023-04-04T18:26:56.060Z,7.30
2023-04-04T18:29:44.246Z,7.20
2023-04-04T18:32:32.064Z,7.70
2023-04-04T18:35:20.599Z,8.00
2023-04-04T18:38:08.265Z,6.70
2023-04-04T18:40:57.964Z,6.40
2023-04-04T18:43:46.797Z,6.30
2023-04-04T18:46:34.328Z,6.30
2023-04-04T18:49:22.390Z,6.00
2023-04-04T18:52:10.654Z,5.80
2023-04-04T18:54:58.828Z,5.70
2023-04-04T18:57:49.240Z,5.60
2023-04-04T19:00:40.064Z,5.50
2023-04-04T19:03:29.363Z,5.60
2023-04-04T19:06:19.840Z,5.30
2023-04-04T19:09:09.883Z,5.40
2023-04-04T19:11:57.311Z,5.30
2023-04-04T19:14:47.221Z,5.20
2023-04-04T19:17:36.284Z,5.30
2023-04-04T19:20:24.180Z,5.10
2023-04-04T19:23:13.044Z,5.20
2023-04-04T19:26:02.373Z,5.10
2023-04-04T19:28:50.759Z,5.00
2023-04-04T19:31:39.515Z,5.80
2023-04-04T19:34:27.072Z,5.10
2023-04-04T19:37:17.773Z,5.10
2023-04-04T19:40:16.424Z,5.00
2023-04-04T19:43:04.509Z,5.00
2023-04-04T19:45:52.776Z,6.40
2023-04-04T19:48:46.190Z,4.90
2023-04-04T19:51:36.937Z,5.30
2023-04-04T19:54:28.963Z,5.10
2023-04-04T19:57:18.814Z,4.90
2023-04-04T20:00:13.754Z,4.90
2023-04-04T20:03:07.073Z,4.80
2023-04-04T20:05:58.697Z,4.90
2023-04-04T20:08:49.156Z,4.90
2023-04-04T20:11:37.812Z,4.80
2023-04-04T20:14:25.782Z,4.80
2023-04-04T20:17:13.490Z,4.70
2023-04-04T20:20:02.073Z,4.60
2023-04-04T20:22:52.479Z,4.40
2023-04-04T20:25:41.084Z,4.30
2023-04-04T20:28:29.549Z,4.30
2023-04-04T20:31:19.766Z,4.50
2023-04-04T20:34:08.154Z,4.30
2023-04-04T20:36:55.968Z,4.50
2023-04-04T20:39:50.486Z,4.60
2023-04-04T20:42:40.224Z,4.60
2023-04-04T20:45:47.028Z,6.40
2023-04-04T20:48:39.563Z,4.60
2023-04-04T20:51:31.532Z,4.50
2023-04-04T20:54:18.782Z,4.50
2023-04-04T20:57:08.065Z,4.50
2023-04-04T20:59:55.649Z,4.20
2023-04-04T21:02:43.737Z,4.20
2023-04-04T21:05:33.338Z,4.10
2023-04-04T21:08:36.610Z,4.00
2023-04-04T21:11:27.336Z,4.00
2023-04-04T21:14:23.796Z,3.90
2023-04-04T21:17:13.097Z,3.70
2023-04-04T21:20:01.333Z,3.10
2023-04-04T21:22:50.086Z,3.50
2023-04-04T21:25:44.568Z,3.30
2023-04-04T21:28:36.724Z,3.30
2023-04-04T21:31:29.398Z,3.20
2023-04-04T21:34:17.748Z,3.20
2023-04-04T21:37:07.457Z,3.20
2023-04-04T21:39:58.715Z,3.20
2023-04-04T21:42:46.600Z,3.10
2023-04-04T21:45:34.658Z,3.10
2023-04-04T21:48:23.762Z,3.00
2023-04-04T21:51:11.760Z,3.00
2023-04-04T21:54:00.753Z,3.00
2023-04-04T21:56:48.531Z,3.10
2023-04-04T21:59:36.098Z,2.90
2023-04-04T22:02:24.285Z,2.90
2023-04-04T22:05:14.366Z,2.90
2023-04-04T22:08:02.391Z,3.00
2023-04-04T22:10:52.502Z,3.00
2023-04-04T22:13:43.132Z,3.00
2023-04-04T22:16:31.926Z,2.90
2023-04-04T22:19:23.585Z,2.90
2023-04-04T22:22:12.775Z,2.80
2023-04-04T22:25:05.044Z,0.20
2023-04-04T22:27:53.852Z,2.60
2023-04-04T22:30:42.764Z,2.50
2023-04-04T22:33:31.229Z,2.40
2023-04-04T22:36:19.498Z,2.30
2023-04-04T22:39:11.838Z,2.20
2023-04-04T22:41:59.300Z,2.10
2023-04-04T22:44:47.686Z,2.20
2023-04-04T22:47:35.655Z,2.20
2023-04-04T22:50:24.167Z,2.10
2023-04-04T22:53:13.121Z,2.10
2023-04-04T22:56:02.523Z,2.10
2023-04-04T22:58:50.689Z,2.00
2023-04-04T23:01:39.340Z,2.00
2023-04-04T23:04:28.178Z,2.00
2023-04-04T23:07:15.298Z,1.80
2023-04-04T23:10:04.138Z,1.70
2023-04-04T23:12:53.653Z,1.60
2023-04-04T23:15:47.035Z,1.40
2023-04-04T23:18:34.800Z,1.90
2023-04-04T23:21:23.038Z,1.30
2023-04-04T23:24:10.735Z,1.50
2023-04-04T23:27:09.791Z,1.40
2023-04-04T23:30:00.433Z,1.40
2023-04-04T23:32:47.521Z,1.60
2023-04-04T23:35:37.011Z,1.50
2023-04-04T23:38:25.015Z,1.40
2023-04-04T23:41:13.032Z,1.50
2023-04-04T23:44:01.160Z,1.40
2023-04-04T23:46:51.100Z,1.40
2023-04-04T23:49:38.995Z,1.30
2023-04-04T23:52:27.263Z,1.10
2023-04-04T23:55:17.197Z,1.10
2023-04-04T23:58:05.255Z,1.10
